Create Tblcommutelog Verified Points Advance Search
| # | Trip ID | Id Commuter | Trip Date | Trip Num | Current Lat | Current Lng | Delta Distance | Current Time | Activity | Activity Confidence | Current Speed | |
|---|---|---|---|---|---|---|---|---|---|---|---|---|
| 71081 | 250819_786823_16483549_0754 | 786823 | (not set) | (not set) | 38.91885243836 | -76.976412076984 | 2.5545 | 2025-08-19 08:07:57 | unknown | 100 | 5.0560140191512 | |
| 71082 | 250819_787489_6461772_0727 | 787489 | (not set) | (not set) | 38.962381768467 | -77.437779409374 | 11.8046 | 2025-08-19 08:07:58 | unknown | 100 | 8.9765483204735 | |
| 71083 | 250819_770658_6426227_0740 | 770658 | (not set) | (not set) | 38.903210132237 | -77.108228446216 | 2.4825 | 2025-08-19 08:08:00 | in_vehicle | 100 | 4.296047278872 | |
| 71084 | 250819_770658_6426227_0740 | 770658 | (not set) | (not set) | 38.903210132237 | -77.108228446216 | 2.4825 | 2025-08-19 08:08:00 | in_vehicle | 100 | 4.296047278872 | |
| 71085 | 250819_770658_6426227_0740 | 770658 | (not set) | (not set) | 38.903210132237 | -77.108228446216 | 2.4825 | 2025-08-19 08:08:00 | in_vehicle | 100 | 4.296047278872 | |
| 71086 | 250819_768637_16414018_0800 | 768637 | (not set) | (not set) | 38.895016111011 | -76.995943319839 | 0.3038 | 2025-08-19 08:08:01 | on_foot | 100 | 0.58562142927392 | |
| 71087 | 250819_768637_16414018_0800 | 768637 | (not set) | (not set) | 38.895016111011 | -76.995943319839 | 0.3038 | 2025-08-19 08:08:01 | on_foot | 100 | 0.58562142927392 | |
| 71088 | 250819_768637_16414018_0801 | 768637 | (not set) | (not set) | 38.895016111011 | -76.995943319839 | 0.3038 | 2025-08-19 08:08:01 | on_foot | 100 | 0.58562142927392 | |
| 71089 | 250819_775525_16655627_0739 | 775525 | (not set) | (not set) | 38.803631218917 | -77.063277816248 | 3.6026 | 2025-08-19 08:08:02 | unknown | 100 | 2.0250878432144 | |
| 71090 | 250819_758406_16514252_0751 | 758406 | (not set) | (not set) | 38.897871535319 | -77.022957696831 | 3.3631 | 2025-08-19 08:08:02 | in_vehicle | 66 | -0.44703925898772 | |
| 71091 | 250819_783490_16491065_0720 | 783490 | (not set) | (not set) | 38.832009069847 | -77.218123134523 | 12.7444 | 2025-08-19 08:08:03 | in_vehicle | 100 | 12.75403005892 | |
| 71092 | 250819_783490_16491065_0720 | 783490 | (not set) | (not set) | 38.832009069847 | -77.218123134523 | 12.7444 | 2025-08-19 08:08:03 | in_vehicle | 100 | 12.75403005892 | |
| 71093 | 250819_785924_6452825_0759 | 785924 | (not set) | (not set) | 39.003138230165 | -76.959403564607 | 0.9173 | 2025-08-19 08:08:04 | on_bicycle | 100 | 2.9638702870886 | |
| 71094 | 250819_785924_6452825_0759 | 785924 | (not set) | (not set) | 39.003138230165 | -76.959403564607 | 0.9173 | 2025-08-19 08:08:04 | on_bicycle | 100 | 2.9638702870886 | |
| 71095 | 250819_774352_6414064_0737 | 774352 | (not set) | (not set) | 38.964193769166 | -77.087507110233 | 2.0561 | 2025-08-19 08:08:04 | in_vehicle | 100 | 3.3706760127674 | |
| 71096 | 250819_780805_16496249_0731 | 780805 | (not set) | (not set) | 38.902546778397 | -77.039397156351 | 12.0072 | 2025-08-19 08:08:04 | on_foot | 100 | -0.44703925898772 | |
| 71097 | 250819_784278_16513851_0708 | 784278 | (not set) | (not set) | 39.141211085098 | -77.188866129871 | 32.335 | 2025-08-19 08:08:05 | in_vehicle | 100 | 5.8964478260481 | |
| 71098 | 250819_769783_16441814_0801 | 769783 | (not set) | (not set) | 38.840854201513 | -76.972722384804 | 0.2801 | 2025-08-19 08:07:29 | on_foot | 100 | 0.48280239970674 | |
| 71099 | 250819_782405_16511739_0702 | 782405 | (not set) | (not set) | 39.026621788858 | -76.906822109075 | 15.96 | 2025-08-19 08:08:06 | in_vehicle | 100 | 12.883671444026 | |
| 71100 | 250819_782405_16511739_0701 | 782405 | (not set) | (not set) | 39.026621788858 | -76.906822109075 | 15.96 | 2025-08-19 08:08:06 | in_vehicle | 100 | 12.883671444026 |